Time;durP1;ratioP1;P1;durP2;ratioP2;P2;SDS_P1;SDS_P2;PMS_P1;PMS_P2;Temp;Humidity;BMP_temperature;BMP_pressure;BME280_temperature;BME280_humidity;BME280_pressure;Samples;Min_cycle;Max_cycle;Signal;HPM_P1;HPM_P2
2021/09/29 00:00:37;;;;;;;7.22;2.15;;;9.70;99.90;;;8.21;100.00;102459.84;4974305;28;20049;-77
2021/09/29 00:03:04;;;;;;;11.70;2.20;;;9.70;99.90;;;8.19;100.00;102449.34;4978338;28;20536;-77
2021/09/29 00:05:30;;;;;;;9.77;2.38;;;9.70;99.90;;;8.16;100.00;102457.28;4984489;28;20541;-77
2021/09/29 00:07:59;;;;;;;9.55;2.53;;;9.70;99.90;;;8.14;100.00;102445.03;5025007;28;20474;-77
2021/09/29 00:10:25;;;;;;;9.30;2.40;;;9.70;99.90;;;8.16;100.00;102457.28;4979702;28;20523;-77
2021/09/29 00:12:51;;;;;;;9.00;2.55;;;9.70;99.90;;;8.19;100.00;102451.97;4983586;28;20062;-77
2021/09/29 00:15:17;;;;;;;9.10;2.60;;;9.70;99.90;;;8.21;100.00;102458.09;5004157;28;20057;-76
2021/09/29 00:17:46;;;;;;;8.90;2.45;;;9.70;99.90;;;8.16;100.00;102448.50;5010397;28;20063;-77
2021/09/29 00:20:15;;;;;;;8.40;1.73;;;9.60;99.90;;;7.98;100.00;102434.66;5013134;28;20095;-77
2021/09/29 00:22:43;;;;;;;5.38;1.90;;;9.50;99.90;;;7.85;100.00;102393.69;4990953;28;20160;-77
2021/09/29 00:25:13;;;;;;;10.20;1.67;;;9.40;99.90;;;7.78;100.00;102420.84;4997687;28;20563;-77
2021/09/29 00:27:40;;;;;;;8.65;1.88;;;9.40;99.90;;;7.77;100.00;102408.63;5010597;28;20504;-77
2021/09/29 00:30:09;;;;;;;18.88;3.10;;;9.40;99.90;;;7.83;100.00;102424.31;4995171;28;20063;-77
2021/09/29 00:32:40;;;;;;;5.97;2.13;;;9.40;99.90;;;7.87;100.00;102488.97;5018015;28;20627;-77
2021/09/29 00:35:09;;;;;;;14.15;3.13;;;9.40;99.90;;;7.88;100.00;102519.53;4995594;28;20052;-77
2021/09/29 00:37:37;;;;;;;9.45;2.25;;;9.40;99.90;;;7.92;100.00;102528.28;5003051;28;20058;-77
2021/09/29 00:40:06;;;;;;;8.00;2.05;;;9.50;99.90;;;7.96;100.00;102530.88;4963026;28;20060;-77
2021/09/29 00:42:32;;;;;;;22.35;2.78;;;9.50;99.90;;;8.06;100.00;102543.94;4971399;28;20082;-77
2021/09/29 00:44:58;;;;;;;12.32;2.38;;;9.60;99.90;;;8.16;100.00;102577.06;4991300;28;20588;-77
2021/09/29 00:47:27;;;;;;;11.30;2.72;;;9.70;99.90;;;8.28;100.00;102645.22;5004732;28;20038;-77
2021/09/29 00:49:53;;;;;;;9.05;3.17;;;9.90;99.90;;;8.39;100.00;102677.53;5001292;28;20037;-77
2021/09/29 00:52:19;;;;;;;16.20;3.45;;;9.90;99.90;;;8.49;100.00;102719.50;5002046;28;20059;-77
2021/09/29 00:54:45;;;;;;;16.33;3.30;;;10.00;99.90;;;8.55;100.00;102729.97;4993049;28;20068;-77
2021/09/29 00:57:11;;;;;;;14.75;3.22;;;10.10;99.90;;;8.58;100.00;102762.34;4999357;28;20734;-77
2021/09/29 00:59:39;;;;;;;12.57;3.40;;;10.10;99.90;;;8.61;100.00;102787.72;4977211;28;20110;-77
2021/09/29 01:02:05;;;;;;;8.23;3.58;;;10.10;99.90;;;8.64;100.00;102877.00;5003887;28;20155;-77
2021/09/29 01:04:32;;;;;;;12.73;3.47;;;10.10;99.90;;;8.61;100.00;102877.88;4977807;28;20064;-77
2021/09/29 01:07:26;;;;;;;7.65;3.08;;;10.10;99.90;;;8.58;100.00;102925.16;4993554;28;20068;-77
2021/09/29 01:10:12;;;;;;;11.95;2.85;;;10.10;99.90;;;8.56;100.00;102933.94;4997955;28;20068;-77
2021/09/29 01:12:55;;;;;;;9.20;3.15;;;10.10;99.90;;;8.50;100.00;102957.56;4997932;28;20062;-77
2021/09/29 01:15:32;;;;;;;10.82;3.15;;;10.00;99.90;;;8.49;100.00;102997.81;5001019;28;20519;-77
2021/09/29 01:18:09;;;;;;;7.53;2.67;;;10.00;99.90;;;8.46;100.00;102998.69;4981960;28;20481;-77
2021/09/29 01:20:42;;;;;;;10.70;2.80;;;9.90;99.90;;;8.42;100.00;103046.84;4987764;28;20035;-77
2021/09/29 01:23:49;;;;;;;11.43;3.53;;;10.00;99.90;;;8.41;100.00;103045.97;4994886;28;20037;-77
2021/09/29 01:26:20;;;;;;;10.88;2.78;;;9.90;99.90;;;8.39;100.00;103073.94;4997009;28;20056;-77
2021/09/29 01:28:56;;;;;;;9.98;3.05;;;9.90;99.90;;;8.39;100.00;103110.69;4992581;28;20060;-77
2021/09/29 01:31:22;;;;;;;;;;;9.90;99.90;;;8.44;100.00;103172.88;5002376;28;20597;-77
2021/09/29 01:33:52;;;;;;;11.45;2.85;;;9.90;99.90;;;8.49;100.00;103179.00;4984660;28;19937;-77
2021/09/29 01:36:20;;;;;;;9.13;2.78;;;10.00;99.90;;;8.53;100.00;103183.38;4982230;28;20048;-77
2021/09/29 01:38:54;;;;;;;13.75;3.25;;;10.00;99.90;;;8.55;100.00;103156.28;4990206;28;20057;-77
2021/09/29 01:41:23;;;;;;;22.67;2.95;;;10.10;99.90;;;8.60;100.00;103179.91;4988057;28;20150;-77
2021/09/29 01:43:50;;;;;;;11.65;3.30;;;10.10;99.90;;;8.59;100.00;103183.38;5000042;28;20064;-77
2021/09/29 01:46:16;;;;;;;11.50;2.80;;;10.10;99.90;;;8.58;100.00;103218.41;5001597;28;20088;-77
2021/09/29 01:49:14;;;;;;;9.85;3.13;;;10.00;99.90;;;8.56;100.00;103246.44;4975155;28;20074;-77
2021/09/29 01:51:45;;;;;;;17.27;3.45;;;10.00;99.90;;;8.56;100.00;103283.19;4982152;28;20068;-77
2021/09/29 01:54:16;;;;;;;10.90;3.75;;;10.00;99.90;;;8.50;100.00;103259.53;4999112;28;20068;-77
2021/09/29 01:56:45;;;;;;;14.93;3.05;;;10.00;99.90;;;8.43;100.00;103255.16;4988135;28;20436;-77
2021/09/29 01:59:11;;;;;;;13.77;3.10;;;9.90;99.90;;;8.31;100.00;103225.31;4993375;28;20109;-77
2021/09/29 02:01:42;;;;;;;12.55;3.40;;;9.80;99.90;;;8.24;100.00;103171.06;4985015;28;20071;-77
2021/09/29 02:04:12;;;;;;;7.28;1.40;;;9.70;99.90;;;8.16;100.00;103210.41;4992667;28;20480;-77
2021/09/29 02:06:54;;;;;;;12.88;1.70;;;9.60;99.90;;;8.01;100.00;103219.09;4991315;28;20504;-77
2021/09/29 02:09:22;;;;;;;4.95;1.52;;;9.60;99.90;;;7.98;100.00;103228.69;4988589;28;20029;-77
2021/09/29 02:11:49;;;;;;;3.85;1.80;;;9.50;99.90;;;7.92;100.00;103271.53;5003550;28;20636;-77
2021/09/29 02:14:18;;;;;;;4.72;2.28;;;9.50;99.90;;;7.86;100.00;103257.50;4994413;28;20068;-77
2021/09/29 02:16:47;;;;;;;8.95;2.35;;;9.40;99.90;;;7.86;100.00;103282.00;4990286;28;20068;-77
2021/09/29 02:19:13;;;;;;;5.07;1.95;;;9.40;99.90;;;7.85;100.00;103318.72;4999550;28;20049;-77
2021/09/29 02:21:43;;;;;;;10.88;2.88;;;9.50;99.90;;;7.92;100.00;103352.84;5004518;28;20435;-77
2021/09/29 02:24:11;;;;;;;9.35;2.60;;;9.40;99.90;;;7.92;100.00;103373.84;4993041;28;20056;-77
2021/09/29 02:26:40;;;;;;;12.10;2.70;;;9.40;99.90;;;7.90;100.00;103399.19;4991022;28;20100;-77
2021/09/29 02:29:08;;;;;;;12.93;2.13;;;9.40;99.90;;;7.83;100.00;103413.13;4984406;28;20370;-77
2021/09/29 02:31:35;;;;;;;9.60;2.13;;;9.30;99.90;;;7.79;100.00;103419.22;4956783;28;20059;-77
2021/09/29 02:34:01;;;;;;;15.88;2.65;;;9.40;99.90;;;7.83;100.00;103473.47;4977513;28;20068;-77
2021/09/29 02:36:28;;;;;;;23.63;2.90;;;9.40;99.90;;;7.89;100.00;103481.38;4993824;28;20519;-77
2021/09/29 02:38:54;;;;;;;20.75;2.10;;;9.40;99.90;;;7.92;100.00;103540.88;4992668;28;20033;-77
2021/09/29 02:41:22;;;;;;;26.73;1.98;;;9.40;99.90;;;7.92;100.00;103562.75;4991680;28;20079;-77
2021/09/29 02:43:49;;;;;;;12.23;2.17;;;9.50;99.90;;;7.93;100.00;103556.63;4991825;28;20532;-77
2021/09/29 02:46:15;;;;;;;41.35;2.60;;;9.50;99.90;;;8.01;100.00;103581.22;5009015;28;20496;-77
2021/09/29 02:48:41;;;;;;;36.75;2.47;;;9.50;99.90;;;8.03;100.00;103604.81;5002960;28;20135;-77
2021/09/29 02:51:08;;;;;;;26.85;3.20;;;9.60;99.90;;;8.02;100.00;103635.44;4995738;28;20699;-77
2021/09/29 02:53:34;;;;;;;16.13;2.75;;;9.60;99.90;;;8.04;100.00;103660.84;5010891;28;20084;-77
2021/09/29 02:56:02;;;;;;;16.80;2.78;;;9.60;99.90;;;8.02;100.00;103740.41;5007769;28;20060;-77
2021/09/29 02:58:29;;;;;;;9.93;2.63;;;9.50;99.90;;;8.02;100.00;103694.94;4993420;28;20084;-77
2021/09/29 03:01:01;;;;;;;10.23;3.10;;;9.50;99.90;;;7.98;100.00;103772.72;4991192;28;20607;-77
2021/09/29 03:03:28;;;;;;;6.93;3.10;;;9.50;99.90;;;7.97;100.00;103770.97;4993110;28;20065;-77
2021/09/29 03:05:55;;;;;;;5.82;2.50;;;9.50;99.90;;;7.97;100.00;103799.84;5001541;28;20437;-77
2021/09/29 03:08:21;;;;;;;11.18;3.15;;;9.50;99.90;;;8.00;100.00;103817.38;4990598;28;20037;-77
2021/09/29 03:10:47;;;;;;;13.63;3.20;;;9.50;99.90;;;8.04;100.00;103858.53;4988337;28;21834;-77
2021/09/29 03:13:13;;;;;;;29.10;3.60;;;9.60;99.90;;;8.09;100.00;103869.09;5028074;28;20061;-77
2021/09/29 03:15:40;;;;;;;19.00;3.63;;;9.60;99.90;;;8.14;100.00;103896.28;5000642;28;20202;-77
2021/09/29 03:18:10;;;;;;;8.45;3.28;;;9.70;99.90;;;8.16;100.00;103897.19;5000457;28;20059;-77
2021/09/29 03:20:36;;;;;;;18.67;3.40;;;9.70;99.90;;;8.19;100.00;103899.88;5000986;28;20105;-77
2021/09/29 03:23:03;;;;;;;10.63;3.67;;;9.80;99.90;;;8.22;100.00;103902.53;4996156;28;20068;-77
2021/09/29 03:25:29;;;;;;;8.90;4.15;;;9.80;99.90;;;8.25;100.00;103944.59;4982354;28;20061;-76
2021/09/29 03:27:55;;;;;;;19.42;3.28;;;9.80;99.90;;;8.29;100.00;103987.50;4987480;28;20115;-77
2021/09/29 03:30:22;;;;;;;19.33;3.60;;;9.90;99.90;;;8.36;100.00;103995.50;4991295;28;20059;-77
2021/09/29 03:32:51;;;;;;;24.23;3.22;;;9.90;99.90;;;8.37;100.00;104013.00;5000455;28;20435;-77
2021/09/29 03:35:17;;;;;;;16.88;3.90;;;9.90;99.90;;;8.35;100.00;104013.84;5011995;28;20060;-77
2021/09/29 03:37:43;;;;;;;22.17;3.75;;;9.90;99.90;;;8.35;100.00;104011.22;5008034;28;20057;-77
2021/09/29 03:40:12;;;;;;;20.70;3.47;;;9.90;99.90;;;8.34;100.00;103907.94;4994529;28;20042;-77
2021/09/29 03:42:42;;;;;;;7.78;3.45;;;9.80;99.90;;;8.31;100.00;103955.16;4969090;28;20139;-77
2021/09/29 03:45:11;;;;;;;6.30;3.47;;;9.80;99.90;;;8.27;100.00;104045.25;4994651;28;20064;-77
2021/09/29 03:47:40;;;;;;;9.23;3.72;;;9.80;99.90;;;8.23;100.00;104095.94;4986089;28;20064;-77
2021/09/29 03:50:10;;;;;;;31.95;3.92;;;9.70;99.90;;;8.16;100.00;104118.59;5001494;28;20056;-77
2021/09/29 03:52:36;;;;;;;6.95;3.25;;;9.60;99.90;;;8.10;100.00;104134.22;4979861;28;20060;-77
2021/09/29 03:55:03;;;;;;;6.82;3.20;;;9.60;99.90;;;8.06;100.00;104194.50;4979464;28;20072;-77
2021/09/29 03:57:29;;;;;;;14.18;3.45;;;9.60;99.90;;;8.00;100.00;104214.50;5011345;28;20057;-77
2021/09/29 03:59:55;;;;;;;5.45;2.90;;;9.50;99.90;;;7.95;100.00;104215.28;4986471;28;20060;-76
2021/09/29 04:02:21;;;;;;;10.18;3.05;;;9.50;99.90;;;7.95;100.00;104255.53;4994387;28;20073;-77
2021/09/29 04:04:47;;;;;;;6.45;3.40;;;9.50;99.90;;;7.98;100.00;104275.69;4985333;28;20062;-77
2021/09/29 04:07:15;;;;;;;5.65;3.03;;;9.50;99.90;;;7.98;100.00;104297.56;5002112;28;20068;-77
2021/09/29 04:09:41;;;;;;;7.43;3.67;;;9.50;99.90;;;7.99;100.00;104359.72;4992543;28;20123;-77
2021/09/29 04:12:07;;;;;;;7.18;3.28;;;9.50;99.90;;;8.01;100.00;104178.66;4999924;28;20066;-77
2021/09/29 04:14:33;;;;;;;6.82;3.47;;;9.50;99.90;;;8.00;100.00;104179.50;5015213;28;20070;-77
2021/09/29 04:16:59;;;;;;;9.68;3.10;;;9.60;99.90;;;7.98;100.00;104250.31;4995135;28;20061;-76
2021/09/29 04:19:26;;;;;;;29.42;3.53;;;9.60;99.90;;;7.96;100.00;104277.41;4981755;28;20060;-76
2021/09/29 04:21:52;;;;;;;7.68;3.05;;;9.50;99.90;;;7.93;100.00;104338.59;4990994;28;20049;-77
2021/09/29 04:24:18;;;;;;;6.70;3.97;;;9.50;99.90;;;7.95;100.00;104359.63;5000976;28;20450;-77
2021/09/29 04:26:44;;;;;;;11.68;3.22;;;9.50;99.90;;;7.95;100.00;104385.88;4994699;28;20068;-77
2021/09/29 04:29:09;;;;;;;8.40;2.55;;;9.50;99.90;;;7.95;100.00;104419.97;4988415;28;20453;-77
2021/09/29 04:31:35;;;;;;;18.25;3.03;;;9.50;99.90;;;7.95;100.00;104394.63;5001529;28;20062;-77
2021/09/29 04:34:03;;;;;;;5.35;2.63;;;9.50;99.90;;;7.96;100.00;104409.50;4992338;28;20067;-77
2021/09/29 04:36:29;;;;;;;6.00;2.35;;;9.50;99.90;;;7.93;100.00;104417.31;5000860;28;20068;-77
2021/09/29 04:38:55;;;;;;;12.32;2.35;;;9.50;99.90;;;7.88;100.00;104479.28;4994874;28;20068;-77
2021/09/29 04:41:23;;;;;;;4.40;2.30;;;9.40;99.90;;;7.84;100.00;104490.56;4984744;28;20042;-77
2021/09/29 04:43:50;;;;;;;5.00;2.42;;;9.30;99.90;;;7.77;100.00;104470.25;5000246;28;20606;-76
2021/09/29 04:46:16;;;;;;;5.60;2.17;;;9.30;99.90;;;7.75;100.00;104529.66;5015148;28;20033;-77
2021/09/29 04:48:42;;;;;;;3.72;2.13;;;9.30;99.90;;;7.72;100.00;104294.38;4993887;28;20108;-77
2021/09/29 04:51:08;;;;;;;11.95;2.10;;;9.30;99.90;;;7.72;100.00;104328.47;4988997;28;20169;-76
2021/09/29 04:53:34;;;;;;;3.22;2.10;;;9.30;99.90;;;7.68;100.00;104367.72;4993146;28;20520;-76
2021/09/29 04:56:00;;;;;;;3.60;2.33;;;9.30;99.90;;;7.74;100.00;104399.38;5010259;28;20072;-76
2021/09/29 04:58:27;;;;;;;6.05;2.30;;;9.30;99.90;;;7.81;100.00;104485.22;5004540;28;20116;-77
2021/09/29 05:00:54;;;;;;;6.57;2.65;;;9.30;99.90;;;7.83;100.00;104543.88;4985246;28;20093;-76
2021/09/29 05:03:22;;;;;;;4.30;2.25;;;9.40;99.90;;;7.85;100.00;104568.44;5015871;28;20482;-77
2021/09/29 05:05:48;;;;;;;9.73;2.22;;;9.40;99.90;;;7.84;100.00;104592.91;4994975;28;20484;-77
2021/09/29 05:08:23;;;;;;;17.20;1.73;;;9.40;99.90;;;7.73;100.00;104597.88;5001735;28;20550;-77
2021/09/29 05:11:03;;;;;;;6.43;1.77;;;9.30;99.90;;;7.74;100.00;104645.97;4994789;28;20065;-76
2021/09/29 05:13:32;;;;;;;3.15;1.73;;;9.30;99.90;;;7.64;100.00;104639.56;4993338;28;20071;-76
2021/09/29 05:16:03;;;;;;;3.03;1.75;;;9.20;99.90;;;7.57;100.00;104541.47;5000862;28;20072;-77
2021/09/29 05:18:30;;;;;;;3.40;2.00;;;9.20;99.90;;;7.58;100.00;104565.94;4981243;28;20064;-76
2021/09/29 05:20:56;;;;;;;3.50;2.17;;;9.10;99.90;;;7.60;100.00;104567.78;5032857;28;20599;-77
2021/09/29 05:23:23;;;;;;;3.15;2.03;;;9.20;99.90;;;7.68;100.00;104620.44;4991036;28;20036;-77
2021/09/29 05:25:49;;;;;;;3.58;1.80;;;9.30;99.90;;;7.72;100.00;104792.84;5007183;28;20098;-77
2021/09/29 05:28:31;;;;;;;3.95;2.25;;;9.30;99.90;;;7.82;100.00;104728.44;5009719;28;20077;-77
2021/09/29 05:30:58;;;;;;;6.88;2.20;;;9.40;99.90;;;7.91;100.00;104769.78;4988525;28;20055;-77
2021/09/29 05:33:25;;;;;;;6.88;2.53;;;9.50;99.90;;;7.99;100.00;104799.75;5027159;28;20116;-77
2021/09/29 05:35:52;;;;;;;10.93;2.40;;;9.60;99.90;;;8.13;100.00;104810.66;5002999;28;20069;-77
2021/09/29 05:38:18;;;;;;;6.32;2.55;;;9.70;99.90;;;8.26;100.00;104865.31;4993182;28;20485;-77
2021/09/29 05:40:44;;;;;;;10.75;2.45;;;9.80;99.90;;;8.35;100.00;104876.06;4999045;28;20064;-77
2021/09/29 05:43:10;;;;;;;12.77;2.75;;;9.90;99.90;;;8.46;100.00;104921.06;5010878;28;20151;-76
2021/09/29 05:45:36;;;;;;;16.77;2.55;;;10.00;99.90;;;8.56;100.00;104896.84;4978007;28;20055;-76
2021/09/29 05:48:02;;;;;;;17.67;3.15;;;10.10;99.90;;;8.66;100.00;104653.66;4975618;28;20064;-76
2021/09/29 05:50:29;;;;;;;5.10;2.70;;;10.20;99.90;;;8.74;100.00;104717.78;4999383;28;20404;-76
2021/09/29 05:52:55;;;;;;;6.30;2.90;;;10.30;99.90;;;8.82;100.00;104763.53;4997424;28;20139;-76
2021/09/29 05:55:21;;;;;;;5.68;2.63;;;10.40;99.90;;;8.90;100.00;104824.19;5039965;28;20048;-76
2021/09/29 05:57:47;;;;;;;16.48;3.60;;;10.50;99.90;;;8.98;100.00;104877.84;4983148;28;20412;-77
2021/09/29 06:00:14;;;;;;;10.38;3.15;;;10.50;99.90;;;9.05;100.00;104970.94;4993498;28;20080;-76
2021/09/29 06:02:41;;;;;;;10.50;3.55;;;10.60;99.90;;;9.13;100.00;104866.84;4991106;28;20090;-76
2021/09/29 06:05:09;;;;;;;7.00;3.10;;;10.70;99.90;;;9.22;100.00;104832.00;4983827;28;20080;-77
2021/09/29 06:07:36;;;;;;;8.85;3.67;;;10.80;99.90;;;9.28;100.00;104816.38;4973510;28;20056;-77
2021/09/29 06:10:03;;;;;;;9.90;3.75;;;10.90;99.90;;;9.35;100.00;104884.06;4987756;28;20149;-77
2021/09/29 06:12:29;;;;;;;19.15;3.13;;;10.90;99.90;;;9.42;100.00;104904.41;4976195;28;20076;-77
2021/09/29 06:14:58;;;;;;;15.85;3.40;;;11.00;99.90;;;9.52;100.00;104921.31;4985125;28;20056;-77
2021/09/29 06:17:26;;;;;;;8.98;2.63;;;11.10;99.90;;;9.62;100.00;104964.53;5009383;28;22448;-76
2021/09/29 06:19:54;;;;;;;17.95;4.05;;;11.20;99.90;;;9.73;100.00;104606.84;4985645;28;20026;-77
2021/09/29 06:22:22;;;;;;;11.70;4.30;;;11.30;99.90;;;9.82;100.00;104589.47;5003012;28;20037;-76
2021/09/29 06:24:49;;;;;;;15.93;5.18;;;11.40;99.90;;;9.97;100.00;104537.94;4964538;28;20084;-77
2021/09/29 06:27:15;;;;;;;14.13;5.10;;;11.50;99.90;;;10.10;100.00;104487.25;4974871;28;20064;-76
2021/09/29 06:29:42;;;;;;;26.80;5.57;;;11.60;99.90;;;10.10;100.00;104557.47;4973727;28;20056;-76
2021/09/29 06:32:09;;;;;;;22.35;5.15;;;11.60;99.90;;;10.13;100.00;104428.47;4984096;28;20404;-77
2021/09/29 06:34:36;;;;;;;17.15;5.25;;;11.70;99.90;;;10.24;100.00;104393.53;5004448;28;20112;-76
2021/09/29 06:37:03;;;;;;;20.70;5.35;;;11.80;99.90;;;10.38;100.00;104396.38;5000214;28;20029;-77
2021/09/29 06:39:29;;;;;;;16.70;4.80;;;;;;;10.52;100.00;104441.38;4981763;28;20389;-77
2021/09/29 06:41:56;;;;;;;19.55;5.72;;;12.00;99.90;;;10.62;100.00;104400.19;4978660;28;20077;-77
2021/09/29 06:44:22;;;;;;;17.40;5.32;;;12.20;99.90;;;10.76;100.00;104395.97;4984004;28;21172;-77
2021/09/29 06:46:48;;;;;;;18.05;6.10;;;12.30;99.90;;;10.93;100.00;104479.63;5002187;28;20067;-77
2021/09/29 06:49:14;;;;;;;21.80;5.50;;;12.30;99.90;;;10.95;100.00;104409.31;4970483;28;20120;-77
2021/09/29 06:51:40;;;;;;;22.48;6.28;;;12.40;99.90;;;11.01;100.00;104383.03;5001227;28;20055;-77
2021/09/29 06:54:06;;;;;;;17.00;5.40;;;12.50;99.90;;;11.09;100.00;104486.84;5002147;28;20553;-77
2021/09/29 06:56:32;;;;;;;24.15;6.22;;;12.60;99.90;;;11.18;100.00;104391.09;4996557;28;20068;-77
2021/09/29 06:58:58;;;;;;;23.35;6.97;;;12.70;99.90;;;11.27;100.00;104401.72;4987303;28;20056;-77
2021/09/29 07:01:24;;;;;;;24.38;6.90;;;12.70;99.90;;;11.38;100.00;104415.94;4971303;28;20161;-77
2021/09/29 07:03:50;;;;;;;25.45;7.28;;;12.90;99.90;;;11.50;100.00;104410.72;4964959;28;20063;-77
2021/09/29 07:06:17;;;;;;;28.05;8.23;;;13.00;99.90;;;11.62;100.00;104417.88;5004369;28;20032;-77
2021/09/29 07:08:44;;;;;;;26.00;7.55;;;13.10;99.90;;;11.74;100.00;104440.84;4988119;28;20018;-77
2021/09/29 07:11:10;;;;;;;23.10;7.85;;;13.30;99.90;;;11.90;100.00;104419.00;5009505;28;20119;-77
2021/09/29 07:13:36;;;;;;;32.15;9.30;;;13.40;99.90;;;12.01;100.00;104424.34;4991256;28;20022;-77
2021/09/29 07:16:03;;;;;;;28.05;7.78;;;13.40;99.90;;;12.09;100.00;104401.50;4973567;28;20104;-77
2021/09/29 07:18:32;;;;;;;27.52;8.48;;;13.50;99.90;;;12.16;100.00;104390.94;5001318;28;20105;-78
2021/09/29 07:20:59;;;;;;;30.25;8.68;;;13.60;99.90;;;12.12;100.00;104363.66;5003633;28;20029;-77
2021/09/29 07:23:26;;;;;;;28.25;8.85;;;13.60;99.90;;;12.34;100.00;104388.41;4991344;28;20036;-77
2021/09/29 07:25:53;;;;;;;26.35;8.40;;;13.60;99.90;;;12.26;100.00;104353.13;4986403;28;20116;-77
2021/09/29 07:28:19;;;;;;;34.15;8.48;;;13.60;99.90;;;12.32;100.00;104361.97;5006587;28;20033;-77
2021/09/29 07:30:46;;;;;;;30.00;9.00;;;13.60;99.90;;;12.34;100.00;104329.41;5027295;28;20068;-77
2021/09/29 07:33:14;;;;;;;39.45;9.85;;;13.70;99.90;;;12.44;100.00;104353.22;4993768;28;20037;-77
2021/09/29 07:35:44;;;;;;;25.90;9.32;;;13.70;99.90;;;12.52;100.00;104369.09;5005334;28;20060;-77
2021/09/29 07:38:11;;;;;;;31.88;10.25;;;13.70;99.90;;;12.46;100.00;104353.19;4980296;28;20124;-77
2021/09/29 07:40:38;;;;;;;31.90;9.85;;;13.80;99.90;;;12.50;100.00;104374.41;4996981;28;20083;-77
2021/09/29 07:43:05;;;;;;;24.95;10.35;;;13.80;99.90;;;12.51;100.00;104389.34;5014926;28;20424;-77
2021/09/29 07:45:31;;;;;;;33.20;10.75;;;13.80;99.90;;;12.47;100.00;104384.94;5001333;28;20029;-77
2021/09/29 07:48:00;;;;;;;30.00;11.07;;;13.80;99.90;;;12.47;100.00;104416.66;4991341;28;20075;-77
2021/09/29 07:50:26;;;;;;;34.53;10.25;;;13.80;99.90;;;12.54;100.00;104451.06;5014663;28;20034;-77
2021/09/29 07:52:52;;;;;;;38.45;12.32;;;13.90;99.90;;;12.63;100.00;104448.44;5020998;28;20064;-77
2021/09/29 07:55:19;;;;;;;38.05;11.27;;;13.90;99.90;;;12.61;100.00;104424.66;4995267;28;20513;-77
2021/09/29 07:57:46;;;;;;;34.65;12.05;;;13.90;99.90;;;12.63;100.00;104430.81;5013713;28;20124;-77
2021/09/29 08:00:17;;;;;;;30.40;13.45;;;13.90;99.90;;;12.65;100.00;104433.47;4968048;28;20041;-77
2021/09/29 08:02:43;;;;;;;44.25;13.60;;;13.90;99.90;;;12.60;100.00;104411.44;4996697;28;20033;-77
2021/09/29 08:05:12;;;;;;;34.22;13.07;;;14.00;99.90;;;12.74;100.00;104454.66;4993782;28;20045;-77
2021/09/29 08:08:03;;;;;;;39.88;12.77;;;14.00;99.90;;;12.73;100.00;104533.09;4953683;28;20042;-77
2021/09/29 08:10:50;;;;;;;36.28;13.40;;;14.10;99.90;;;12.80;100.00;104412.34;4965607;28;20447;-77
2021/09/29 08:13:53;;;;;;;36.03;13.40;;;14.10;99.90;;;12.86;100.00;104437.94;4966141;28;20066;-77
2021/09/29 08:16:44;;;;;;;30.63;13.40;;;14.10;99.90;;;12.73;100.00;104408.81;4948850;28;20123;-77
2021/09/29 08:20:00;;;;;;;32.00;12.93;;;14.10;99.90;;;12.87;100.00;104504.09;4978589;28;20045;-77
2021/09/29 08:22:55;;;;;;;32.50;14.60;;;14.20;99.90;;;12.84;100.00;104439.72;4962990;28;20094;-77
2021/09/29 08:26:32;;;;;;;32.83;14.27;;;14.10;99.90;;;12.80;100.00;104512.84;4970285;28;20034;-77
2021/09/29 08:29:25;;;;;;;32.50;12.90;;;14.10;99.90;;;12.73;100.00;104411.47;4972840;28;20025;-77
2021/09/29 08:35:58;;;;;;;36.88;13.23;;;14.10;99.90;;;12.77;100.00;104364.75;4975567;28;20075;-77
2021/09/29 08:43:29;;;;;;;33.50;15.25;;;14.10;99.90;;;12.89;100.00;104350.66;4967969;28;20038;-76
2021/09/29 08:46:20;;;;;;;34.33;16.73;;;14.40;99.90;;;13.08;100.00;104356.84;4965628;28;21530;-77
2021/09/29 08:53:55;;;;;;;39.95;17.58;;;14.40;99.90;;;13.10;100.00;104262.50;4957962;28;20038;-76
2021/09/29 08:57:27;;;;;;;37.35;16.98;;;14.40;99.90;;;13.21;100.00;104249.25;4963464;28;20076;-76
2021/09/29 09:16:51;;;;;;;32.85;14.75;;;14.40;99.90;;;13.06;100.00;104038.50;4980541;28;19920;-77
2021/09/29 09:21:09;;;;;;;28.92;16.20;;;14.40;99.90;;;13.08;100.00;104040.25;4956763;28;20573;-77
2021/09/29 09:24:17;;;;;;;36.25;17.50;;;14.50;99.90;;;13.17;100.00;104026.09;4958583;28;20111;-76
2021/09/29 09:27:50;;;;;;;47.33;21.42;;;14.40;99.90;;;13.23;100.00;104020.78;4962502;28;20033;-77
2021/09/29 09:30:51;;;;;;;45.22;20.13;;;14.50;99.90;;;13.21;100.00;104004.03;4971407;28;20029;-76
2021/09/29 09:34:23;;;;;;;52.65;22.75;;;14.40;99.90;;;13.08;100.00;103974.09;4980239;28;20053;-76
2021/09/29 09:37:32;;;;;;;60.35;26.30;;;14.30;99.90;;;13.08;100.00;103978.53;4963714;28;20060;-76
2021/09/29 09:44:28;;;;;;;66.05;25.33;;;14.30;99.90;;;13.09;100.00;103949.44;4969190;28;20068;-76
2021/09/29 09:48:40;;;;;;;65.63;26.83;;;14.30;99.90;;;13.09;100.00;103961.78;4987953;28;20593;-76
2021/09/29 09:52:13;;;;;;;74.53;26.08;;;14.30;99.90;;;13.08;100.00;103962.66;4952200;28;20277;-76
2021/09/29 10:00:27;;;;;;;79.55;25.88;;;14.30;99.90;;;13.10;100.00;103950.31;4967440;28;20072;-77
2021/09/29 10:04:41;;;;;;;68.75;24.25;;;14.30;99.90;;;13.17;100.00;103977.59;4968715;28;20048;-76
2021/09/29 10:07:56;;;;;;;72.10;26.17;;;14.40;99.90;;;13.13;100.00;103998.78;4969543;28;20041;-76
2021/09/29 10:11:51;;;;;;;73.22;25.40;;;14.40;99.90;;;13.20;100.00;103999.63;4953519;28;20038;-76
2021/09/29 10:26:43;;;;;;;66.45;24.70;;;14.70;99.90;;;13.48;100.00;103968.63;4965254;28;20073;-76
2021/09/29 10:30:11;;;;;;;75.72;25.27;;;14.70;99.90;;;13.53;100.00;103935.03;4993003;28;20030;-76
2021/09/29 10:34:08;;;;;;;76.63;27.10;;;14.70;99.90;;;13.43;100.00;103893.63;4969076;28;20037;-76
2021/09/29 10:41:39;;;;;;;62.17;25.38;;;14.80;99.90;;;13.53;100.00;103897.97;4901282;28;20490;-76
2021/09/29 10:53:15;;;;;;;65.65;26.13;;;14.80;99.90;;;13.64;100.00;103836.97;4974346;28;20373;-76
2021/09/29 11:34:11;;;;;;;65.18;27.73;;;14.90;99.90;;;13.53;100.00;103797.38;4972163;28;20036;-80
2021/09/29 12:08:19;;;;;;;32.08;16.17;;;13.70;99.90;;;12.28;100.00;103487.41;4981605;28;20043;-80
2021/09/29 12:11:41;;;;;;;26.85;15.00;;;13.50;99.90;;;12.13;100.00;103447.94;4971761;28;20029;-80
2021/09/29 12:14:47;;;;;;;33.13;15.57;;;13.30;99.90;;;11.98;100.00;103399.63;4983502;28;20045;-80
2021/09/29 12:17:57;;;;;;;26.25;14.38;;;13.20;99.90;;;11.91;100.00;103358.34;4973700;28;20486;-80
2021/09/29 12:20:26;;;;;;;27.45;14.30;;;13.20;99.90;;;11.82;100.00;103374.25;4962180;28;20055;-80
2021/09/29 12:23:03;;;;;;;25.40;14.13;;;13.10;99.90;;;11.77;100.00;103378.69;4966375;28;20120;-80
2021/09/29 12:28:18;;;;;;;30.77;14.45;;;13.00;99.90;;;11.70;100.00;103355.03;5008510;28;20030;-80
2021/09/29 12:30:55;;;;;;;23.00;12.93;;;12.90;99.90;;;11.61;100.00;103307.56;5010596;28;20033;-81
2021/09/29 12:33:58;;;;;;;23.55;11.45;;;12.90;99.90;;;11.56;100.00;103290.06;4970845;28;20505;-80
2021/09/29 12:36:35;;;;;;;22.60;12.38;;;12.80;99.90;;;11.54;100.00;103295.34;4993632;28;20072;-80
2021/09/29 12:39:15;;;;;;;29.50;14.57;;;12.80;99.90;;;11.46;100.00;103294.53;4975315;28;20036;-80
2021/09/29 12:41:56;;;;;;;26.45;14.15;;;12.70;99.90;;;11.40;100.00;103303.41;4979415;28;20074;-80
2021/09/29 12:44:22;;;;;;;21.75;10.68;;;12.70;99.90;;;11.32;100.00;103272.66;4994617;28;20033;-80
2021/09/29 12:47:21;;;;;;;26.30;11.93;;;12.60;99.90;;;11.28;100.00;103263.94;4985959;28;20105;-81
2021/09/29 12:49:47;;;;;;;21.20;10.77;;;12.60;99.90;;;11.27;100.00;103251.63;4993749;28;20041;-80
2021/09/29 12:52:36;;;;;;;20.38;11.13;;;12.50;99.90;;;11.18;100.00;103228.84;4988039;28;20036;-81
2021/09/29 12:55:04;;;;;;;20.85;12.02;;;12.50;99.90;;;11.20;100.00;103226.19;5014889;28;20051;-79
2021/09/29 12:57:31;;;;;;;21.35;11.38;;;12.50;99.90;;;11.13;100.00;103222.75;4978805;28;20412;-79